createdAt,value
2022-10-19T00:01:20.906Z,61
2022-10-19T00:03:53.770Z,62
2022-10-19T00:06:24.911Z,64
2022-10-19T00:08:58.028Z,67
2022-10-19T00:11:29.218Z,72
2022-10-19T00:14:00.461Z,72
2022-10-19T00:16:31.481Z,70
2022-10-19T00:19:02.664Z,72
2022-10-19T00:21:39.832Z,64
2022-10-19T00:24:11.040Z,65
2022-10-19T00:26:41.712Z,57
2022-10-19T00:29:13.368Z,57
2022-10-19T00:31:45.124Z,55
2022-10-19T00:34:15.960Z,61
2022-10-19T00:36:47.022Z,64
2022-10-19T00:39:20.067Z,62
2022-10-19T00:41:50.853Z,60
2022-10-19T00:44:21.676Z,56
2022-10-19T00:46:52.667Z,65
2022-10-19T00:49:24.625Z,64
2022-10-19T00:51:53.969Z,62
2022-10-19T00:54:26.408Z,60
2022-10-19T00:56:57.508Z,60
2022-10-19T00:59:28.180Z,67
2022-10-19T01:02:00.629Z,64
2022-10-19T01:04:32.371Z,63
2022-10-19T01:07:03.225Z,68
2022-10-19T01:09:33.808Z,62
2022-10-19T01:12:04.032Z,68
2022-10-19T01:14:39.585Z,64
2022-10-19T01:17:10.517Z,61
2022-10-19T01:19:41.000Z,64
2022-10-19T01:22:12.198Z,62
2022-10-19T01:24:43.179Z,59
2022-10-19T01:27:14.190Z,59
2022-10-19T01:29:45.090Z,57
2022-10-19T01:32:16.327Z,56
2022-10-19T01:34:47.844Z,50
2022-10-19T01:37:17.118Z,52
2022-10-19T01:39:49.200Z,52
2022-10-19T01:42:19.005Z,46
2022-10-19T01:44:50.623Z,44
2022-10-19T01:47:22.149Z,43
2022-10-19T01:49:53.265Z,38
2022-10-19T01:52:24.019Z,47
2022-10-19T01:54:55.719Z,40
2022-10-19T01:57:26.927Z,40
2022-10-19T01:59:58.173Z,43
2022-10-19T02:02:30.493Z,44
2022-10-19T02:05:02.534Z,39
2022-10-19T02:07:33.699Z,40
2022-10-19T02:10:05.025Z,32
2022-10-19T02:12:36.932Z,47
2022-10-19T02:15:08.099Z,41
2022-10-19T02:17:37.247Z,44
2022-10-19T02:20:08.219Z,44
2022-10-19T02:22:39.325Z,42
2022-10-19T02:25:10.230Z,41
2022-10-19T02:27:41.275Z,45
2022-10-19T02:30:10.465Z,38
2022-10-19T02:32:41.367Z,52
2022-10-19T02:35:12.100Z,38
2022-10-19T02:37:45.641Z,38
2022-10-19T02:40:15.042Z,45
2022-10-19T02:42:46.197Z,48
2022-10-19T02:45:17.059Z,39
2022-10-19T02:47:48.297Z,41
2022-10-19T02:50:19.707Z,50
2022-10-19T02:52:50.887Z,51
2022-10-19T02:55:21.707Z,52
2022-10-19T02:57:50.972Z,44
2022-10-19T03:00:21.824Z,40
2022-10-19T03:02:51.902Z,48
2022-10-19T03:05:23.347Z,41
2022-10-19T03:07:55.433Z,44
2022-10-19T03:10:26.104Z,52
2022-10-19T03:12:56.929Z,52
2022-10-19T03:15:28.231Z,56
2022-10-19T03:17:59.161Z,49
2022-10-19T03:20:30.201Z,49
2022-10-19T03:23:01.004Z,67
2022-10-19T03:25:31.827Z,53
2022-10-19T03:28:02.312Z,65
2022-10-19T03:30:33.361Z,58
2022-10-19T03:33:04.783Z,61
2022-10-19T03:35:37.499Z,47
2022-10-19T03:38:09.182Z,56
2022-10-19T03:40:40.817Z,62
2022-10-19T03:43:11.757Z,58
2022-10-19T03:45:43.125Z,59
2022-10-19T03:48:14.736Z,59
2022-10-19T03:50:46.999Z,60
2022-10-19T03:53:17.169Z,62
2022-10-19T03:55:47.757Z,59
2022-10-19T03:58:17.429Z,58
2022-10-19T04:00:48.111Z,55
2022-10-19T04:03:26.032Z,60
2022-10-19T04:05:58.429Z,58
2022-10-19T04:08:29.516Z,56
2022-10-19T04:11:02.359Z,59
2022-10-19T04:13:33.257Z,60
2022-10-19T04:16:03.899Z,63
2022-10-19T04:18:35.721Z,61
2022-10-19T04:21:07.029Z,61
2022-10-19T04:23:36.642Z,67
2022-10-19T04:26:07.346Z,64
2022-10-19T04:28:36.783Z,68
2022-10-19T04:31:07.426Z,68
2022-10-19T04:33:39.600Z,68
2022-10-19T04:36:10.231Z,76
2022-10-19T04:38:41.590Z,75
2022-10-19T04:41:12.387Z,82
2022-10-19T04:43:43.191Z,79
2022-10-19T04:46:13.144Z,77
2022-10-19T04:48:44.400Z,64
2022-10-19T04:51:15.391Z,63
2022-10-19T04:53:45.657Z,68
2022-10-19T04:56:16.900Z,69
2022-10-19T04:58:47.756Z,62
2022-10-19T05:01:18.703Z,68
2022-10-19T05:03:47.909Z,66
2022-10-19T05:06:19.367Z,69
2022-10-19T05:08:50.293Z,65
2022-10-19T05:11:21.363Z,65
2022-10-19T05:13:52.242Z,73
2022-10-19T05:16:21.607Z,68
2022-10-19T05:18:51.300Z,74
2022-10-19T05:21:22.977Z,72
2022-10-19T05:23:53.850Z,72
2022-10-19T05:26:24.655Z,77
2022-10-19T05:28:55.842Z,77
2022-10-19T05:31:26.035Z,72
2022-10-19T05:33:58.575Z,85
2022-10-19T05:36:27.381Z,85
2022-10-19T05:38:58.016Z,84
2022-10-19T05:41:29.623Z,84
2022-10-19T05:44:00.631Z,85
2022-10-19T05:46:31.799Z,91
2022-10-19T05:49:03.485Z,85
2022-10-19T05:51:34.148Z,93
2022-10-19T05:54:11.219Z,92
2022-10-19T05:56:41.929Z,92
2022-10-19T05:59:13.268Z,89
2022-10-19T06:01:44.051Z,92
2022-10-19T06:06:47.075Z,90
2022-10-19T06:09:17.482Z,89
2022-10-19T06:11:48.341Z,101
2022-10-19T06:14:19.278Z,89
2022-10-19T06:16:51.262Z,89
2022-10-19T06:19:21.791Z,89
2022-10-19T06:21:54.040Z,88
2022-10-19T06:24:24.355Z,86
2022-10-19T06:26:54.999Z,87
2022-10-19T06:29:26.057Z,88
2022-10-19T06:31:56.798Z,89
2022-10-19T06:34:27.376Z,88
2022-10-19T06:36:58.614Z,91
2022-10-19T06:39:29.391Z,97
2022-10-19T06:42:00.728Z,89
2022-10-19T06:44:32.479Z,90
2022-10-19T06:47:03.571Z,89
2022-10-19T06:49:34.020Z,95
2022-10-19T06:52:05.288Z,116
2022-10-19T06:54:34.246Z,146
2022-10-19T06:57:04.999Z,112
2022-10-19T06:59:36.590Z,93
2022-10-19T07:02:07.802Z,91
2022-10-19T07:04:38.544Z,85
2022-10-19T07:07:10.404Z,84
2022-10-19T07:09:41.112Z,86
2022-10-19T07:12:13.194Z,87
2022-10-19T07:14:43.825Z,81
2022-10-19T07:17:14.421Z,84
2022-10-19T07:19:45.309Z,83
2022-10-19T07:22:20.473Z,84
2022-10-19T07:24:46.820Z,80
2022-10-19T07:27:18.295Z,80
2022-10-19T07:29:49.552Z,83
2022-10-19T07:32:21.634Z,84
2022-10-19T07:34:52.879Z,86
2022-10-19T07:37:25.634Z,83
2022-10-19T07:39:56.507Z,81
2022-10-19T07:42:27.112Z,81
2022-10-19T07:44:58.137Z,80
2022-10-19T07:47:29.969Z,77
2022-10-19T07:50:00.706Z,79
2022-10-19T07:52:34.473Z,76
2022-10-19T07:55:02.744Z,74
2022-10-19T07:57:33.109Z,73
2022-10-19T08:00:04.406Z,80
2022-10-19T08:02:39.705Z,79
2022-10-19T08:05:07.974Z,81
2022-10-19T08:07:37.387Z,81
2022-10-19T08:10:07.991Z,77
2022-10-19T08:12:38.245Z,77
2022-10-19T08:15:09.663Z,72
2022-10-19T08:17:46.931Z,80
2022-10-19T08:20:17.690Z,83
2022-10-19T08:22:48.506Z,78
2022-10-19T08:25:17.560Z,80
2022-10-19T08:27:48.491Z,76
2022-10-19T08:30:19.203Z,82
2022-10-19T08:32:49.747Z,76
2022-10-19T08:35:20.041Z,76
2022-10-19T08:37:50.839Z,76
2022-10-19T08:40:21.256Z,80
2022-10-19T08:42:51.360Z,80
2022-10-19T08:45:25.878Z,80
2022-10-19T08:47:55.933Z,73
2022-10-19T08:50:26.480Z,72
2022-10-19T08:52:57.330Z,77
2022-10-19T08:55:27.551Z,77
2022-10-19T08:57:58.507Z,76
2022-10-19T09:00:30.527Z,76
2022-10-19T09:03:00.919Z,75
2022-10-19T09:05:31.601Z,77
2022-10-19T09:08:02.176Z,78
2022-10-19T09:10:32.772Z,77
2022-10-19T09:13:04.579Z,72
2022-10-19T09:15:34.746Z,68
2022-10-19T09:18:05.099Z,69
2022-10-19T09:20:37.081Z,73
2022-10-19T09:23:13.139Z,71
2022-10-19T09:25:38.239Z,74
2022-10-19T09:28:08.734Z,76
2022-10-19T09:30:39.229Z,74
2022-10-19T09:33:10.022Z,72
2022-10-19T09:35:39.055Z,70
2022-10-19T09:38:10.001Z,64
2022-10-19T09:40:40.817Z,85
2022-10-19T09:43:11.451Z,72
2022-10-19T09:45:44.236Z,67
2022-10-19T09:48:14.915Z,65
2022-10-19T09:50:46.363Z,64
2022-10-19T09:53:17.139Z,65
2022-10-19T09:58:18.258Z,64
2022-10-19T10:00:50.603Z,60
2022-10-19T10:03:21.652Z,59
2022-10-19T10:05:53.498Z,64
2022-10-19T10:08:24.237Z,56
2022-10-19T10:10:55.247Z,58
2022-10-19T10:13:26.917Z,57
2022-10-19T10:15:58.177Z,60
2022-10-19T10:18:28.827Z,61
2022-10-19T10:21:00.619Z,50
2022-10-19T10:23:31.221Z,55
2022-10-19T10:26:01.761Z,57
2022-10-19T10:28:33.330Z,51
2022-10-19T10:31:04.112Z,52
2022-10-19T10:33:43.991Z,56
2022-10-19T10:36:05.791Z,56
2022-10-19T10:38:37.191Z,52
2022-10-19T10:41:08.256Z,52
2022-10-19T10:43:41.489Z,52
2022-10-19T10:46:12.143Z,55
2022-10-19T10:48:42.721Z,50
2022-10-19T10:51:13.657Z,56
2022-10-19T10:53:44.620Z,55
2022-10-19T10:56:15.215Z,57
2022-10-19T10:58:46.370Z,53
2022-10-19T11:01:16.740Z,51
2022-10-19T11:03:48.529Z,52
2022-10-19T11:06:19.367Z,45
2022-10-19T11:08:50.795Z,48
2022-10-19T11:11:21.162Z,61
2022-10-19T11:13:51.358Z,55
2022-10-19T11:16:22.199Z,48
2022-10-19T11:18:53.470Z,47
2022-10-19T11:21:24.082Z,53
2022-10-19T11:23:54.766Z,52
2022-10-19T11:26:25.767Z,49
2022-10-19T11:28:57.550Z,56
2022-10-19T11:31:29.622Z,49
2022-10-19T11:33:58.136Z,50
2022-10-19T11:36:28.847Z,59
2022-10-19T11:38:59.320Z,58
2022-10-19T11:41:30.000Z,58
2022-10-19T11:44:01.114Z,51
2022-10-19T11:46:31.678Z,52
2022-10-19T11:49:02.705Z,49
2022-10-19T11:51:33.160Z,49
2022-10-19T11:54:04.839Z,49
2022-10-19T11:56:51.437Z,48
2022-10-19T11:59:06.861Z,50
2022-10-19T12:01:42.155Z,50
2022-10-19T12:04:13.999Z,51
2022-10-19T12:06:45.064Z,51
2022-10-19T12:09:16.094Z,56
2022-10-19T12:11:48.130Z,50
2022-10-19T12:14:18.645Z,52
2022-10-19T12:16:49.403Z,56
2022-10-19T12:19:19.810Z,57
2022-10-19T12:21:51.386Z,52
2022-10-19T12:24:21.738Z,57
2022-10-19T12:26:52.509Z,52
2022-10-19T12:29:22.599Z,57
2022-10-19T12:31:53.036Z,57
2022-10-19T12:34:25.695Z,56
2022-10-19T12:36:56.310Z,56
2022-10-19T12:39:28.888Z,62
2022-10-19T12:41:59.617Z,60
2022-10-19T12:44:29.978Z,65
2022-10-19T12:47:01.035Z,60
2022-10-19T12:49:31.782Z,75
2022-10-19T12:52:02.162Z,60
2022-10-19T12:54:32.444Z,64
2022-10-19T12:57:04.827Z,64
2022-10-19T12:59:36.061Z,62
2022-10-19T13:02:06.533Z,62
2022-10-19T13:04:37.384Z,63
2022-10-19T13:07:07.383Z,65
2022-10-19T13:09:38.029Z,65
2022-10-19T13:12:09.031Z,61
2022-10-19T13:14:39.606Z,66
2022-10-19T13:17:10.653Z,64
2022-10-19T13:19:42.321Z,60
2022-10-19T13:22:13.079Z,60
2022-10-19T13:24:43.786Z,61
2022-10-19T13:27:14.667Z,60
2022-10-19T13:29:45.792Z,63
2022-10-19T13:32:16.974Z,64
2022-10-19T13:34:47.098Z,56
2022-10-19T13:37:17.729Z,68
2022-10-19T13:39:52.323Z,59
2022-10-19T13:42:26.910Z,63
2022-10-19T13:44:58.322Z,68
2022-10-19T13:47:30.942Z,60
2022-10-19T13:50:01.540Z,61
2022-10-19T13:52:32.747Z,64
2022-10-19T13:55:02.444Z,63
2022-10-19T13:57:34.104Z,68
2022-10-19T14:00:05.559Z,60
2022-10-19T14:02:36.741Z,72
2022-10-19T14:05:07.169Z,60
2022-10-19T14:07:36.993Z,65
2022-10-19T14:10:07.867Z,68
2022-10-19T14:12:38.758Z,59
2022-10-19T14:15:09.447Z,61
2022-10-19T14:17:44.364Z,60
2022-10-19T14:20:14.951Z,58
2022-10-19T14:22:45.542Z,61
2022-10-19T14:25:18.149Z,60
2022-10-19T14:27:48.696Z,60
2022-10-19T14:30:20.115Z,64
2022-10-19T14:32:50.387Z,56
2022-10-19T14:35:20.969Z,60
2022-10-19T14:37:51.516Z,64
2022-10-19T14:40:24.859Z,60
2022-10-19T14:42:54.261Z,61
2022-10-19T14:45:27.163Z,63
2022-10-19T14:47:57.394Z,58
2022-10-19T14:50:28.657Z,63
2022-10-19T14:52:59.243Z,80
2022-10-19T14:55:30.395Z,82
2022-10-19T14:58:00.859Z,65
2022-10-19T15:00:31.511Z,67
2022-10-19T15:03:02.162Z,65
2022-10-19T15:05:30.789Z,66
2022-10-19T15:08:02.019Z,60
2022-10-19T15:10:35.675Z,62
2022-10-19T15:13:05.804Z,61
2022-10-19T15:15:37.169Z,61
2022-10-19T15:18:16.302Z,61
2022-10-19T15:20:43.775Z,66
2022-10-19T15:23:07.940Z,65
2022-10-19T15:25:39.298Z,66
2022-10-19T15:30:41.627Z,64
2022-10-19T15:33:13.179Z,65
2022-10-19T15:35:44.600Z,59
2022-10-19T15:38:15.447Z,64
2022-10-19T15:40:46.657Z,63
2022-10-19T15:43:17.953Z,63
2022-10-19T15:45:50.088Z,60
2022-10-19T15:48:21.168Z,65
2022-10-19T15:50:52.354Z,62
2022-10-19T15:53:23.700Z,69
2022-10-19T15:55:54.779Z,65
2022-10-19T15:58:25.797Z,61
2022-10-19T16:00:58.551Z,57
2022-10-19T16:03:28.749Z,62
2022-10-19T16:06:00.356Z,64
2022-10-19T16:08:31.763Z,65
2022-10-19T16:11:02.639Z,65
2022-10-19T16:13:35.052Z,69
2022-10-19T16:16:11.143Z,58
2022-10-19T16:18:37.366Z,60
2022-10-19T16:21:08.398Z,62
2022-10-19T16:23:41.833Z,66
2022-10-19T16:26:11.633Z,62
2022-10-19T16:28:43.039Z,68
2022-10-19T16:31:14.671Z,59
2022-10-19T16:33:45.846Z,59
2022-10-19T16:36:18.168Z,64
2022-10-19T16:38:49.540Z,64
2022-10-19T16:41:20.709Z,67
2022-10-19T16:43:52.398Z,61
2022-10-19T16:46:23.483Z,69
2022-10-19T16:48:54.905Z,64
2022-10-19T16:51:25.941Z,68
2022-10-19T16:53:58.315Z,66
2022-10-19T16:56:30.558Z,66
2022-10-19T16:59:01.621Z,62
2022-10-19T17:01:32.593Z,66
2022-10-19T17:04:04.606Z,68
2022-10-19T17:06:38.820Z,64
2022-10-19T17:09:40.642Z,65
2022-10-19T17:11:39.687Z,65
2022-10-19T17:14:11.403Z,64
2022-10-19T17:16:43.520Z,67
2022-10-19T17:19:14.868Z,61
2022-10-19T17:21:46.521Z,64
2022-10-19T17:24:21.574Z,60
2022-10-19T17:26:51.496Z,55
2022-10-19T17:29:22.528Z,56
2022-10-19T17:31:53.261Z,60
2022-10-19T17:34:22.953Z,60
2022-10-19T17:36:53.374Z,56
2022-10-19T17:39:24.422Z,56
2022-10-19T17:41:54.332Z,52
2022-10-19T17:44:30.567Z,56
2022-10-19T17:47:02.218Z,50
2022-10-19T17:49:34.434Z,47
2022-10-19T17:52:05.488Z,56
2022-10-19T17:54:43.196Z,57
2022-10-19T17:57:07.884Z,56
2022-10-19T17:59:51.965Z,53
2022-10-19T18:02:11.629Z,49
2022-10-19T18:04:46.725Z,48
2022-10-19T18:07:17.978Z,52
2022-10-19T18:09:54.319Z,40
2022-10-19T18:12:26.107Z,48
2022-10-19T18:14:57.558Z,46
2022-10-19T18:17:34.108Z,47
2022-10-19T18:20:06.351Z,43
2022-10-19T18:22:38.619Z,39
2022-10-19T18:25:10.423Z,39
2022-10-19T18:27:41.842Z,43
2022-10-19T18:30:13.671Z,48
2022-10-19T18:32:44.473Z,48
2022-10-19T18:35:16.113Z,52
2022-10-19T18:37:47.719Z,44
2022-10-19T18:40:19.399Z,49
2022-10-19T18:42:50.304Z,44
2022-10-19T18:45:21.585Z,48
2022-10-19T18:47:53.334Z,51
2022-10-19T18:50:24.881Z,51
2022-10-19T18:52:56.549Z,48
2022-10-19T18:55:29.118Z,46
2022-10-19T18:58:00.314Z,52
2022-10-19T19:00:33.251Z,56
2022-10-19T19:03:04.666Z,52
2022-10-19T19:05:36.699Z,52
2022-10-19T19:08:10.257Z,52
2022-10-19T19:10:45.724Z,54
2022-10-19T19:13:17.684Z,52
2022-10-19T19:15:50.801Z,52
2022-10-19T19:18:24.105Z,49
2022-10-19T19:20:55.208Z,51
2022-10-19T19:23:26.616Z,55
2022-10-19T19:25:57.939Z,52
2022-10-19T19:28:29.665Z,58
2022-10-19T19:31:02.403Z,44
2022-10-19T19:33:34.358Z,51
2022-10-19T19:36:06.800Z,50
2022-10-19T19:38:38.984Z,56
2022-10-19T19:41:11.823Z,48
2022-10-19T19:43:41.875Z,52
2022-10-19T19:46:11.382Z,53
2022-10-19T19:48:44.928Z,44
2022-10-19T19:51:16.895Z,48
2022-10-19T19:53:47.458Z,48
2022-10-19T19:56:20.747Z,36
2022-10-19T19:58:52.510Z,43
2022-10-19T20:01:25.059Z,45
2022-10-19T20:03:58.727Z,37
2022-10-19T20:06:30.092Z,35
2022-10-19T20:09:06.393Z,35
2022-10-19T20:11:42.295Z,34
2022-10-19T20:14:09.645Z,36
2022-10-19T20:16:42.069Z,37
2022-10-19T20:19:16.682Z,29
2022-10-19T20:21:48.046Z,29
2022-10-19T20:24:20.772Z,25
2022-10-19T20:26:52.108Z,23
2022-10-19T20:29:23.229Z,31
2022-10-19T20:31:54.942Z,29
2022-10-19T20:34:26.543Z,27
2022-10-19T20:36:58.160Z,30
2022-10-19T20:39:32.330Z,28
2022-10-19T20:42:04.516Z,30
2022-10-19T20:44:38.615Z,28
2022-10-19T20:47:09.838Z,29
2022-10-19T20:49:41.716Z,26
2022-10-19T20:52:13.783Z,22
2022-10-19T20:54:45.583Z,24
2022-10-19T20:57:16.963Z,23
2022-10-19T20:59:50.414Z,29
2022-10-19T21:02:22.672Z,26
2022-10-19T21:04:53.979Z,23
2022-10-19T21:07:25.557Z,20
2022-10-19T21:09:57.690Z,24
2022-10-19T21:12:28.864Z,24
2022-10-19T21:15:00.853Z,17
2022-10-19T21:17:33.076Z,26
2022-10-19T21:20:06.058Z,21
2022-10-19T21:22:38.213Z,22
2022-10-19T21:25:09.670Z,25
2022-10-19T21:27:41.100Z,23
2022-10-19T21:30:10.690Z,23
2022-10-19T21:32:41.542Z,20
2022-10-19T21:35:13.565Z,20
2022-10-19T21:37:45.434Z,21
2022-10-19T21:40:17.703Z,20
2022-10-19T21:42:49.014Z,21
2022-10-19T21:45:33.262Z,20
2022-10-19T21:47:51.964Z,19
2022-10-19T21:50:22.759Z,21
2022-10-19T21:52:53.923Z,22
2022-10-19T21:55:25.576Z,26
2022-10-19T21:57:56.822Z,26
2022-10-19T22:00:30.718Z,26
2022-10-19T22:03:01.604Z,20
2022-10-19T22:05:32.628Z,29
2022-10-19T22:08:03.696Z,33
2022-10-19T22:10:36.160Z,31
2022-10-19T22:13:08.580Z,28
2022-10-19T22:15:40.026Z,29
2022-10-19T22:18:11.267Z,36
2022-10-19T22:20:41.645Z,31
2022-10-19T22:23:12.035Z,27
2022-10-19T22:25:43.150Z,28
2022-10-19T22:28:13.980Z,51
2022-10-19T22:30:44.715Z,48
2022-10-19T22:33:15.050Z,46
2022-10-19T22:35:46.261Z,37
2022-10-19T22:38:17.682Z,36
2022-10-19T22:40:49.035Z,25
2022-10-19T22:43:19.950Z,26
2022-10-19T22:45:51.747Z,35
2022-10-19T22:48:22.666Z,28
2022-10-19T22:50:53.592Z,33
2022-10-19T22:53:25.507Z,33
2022-10-19T22:55:56.577Z,31
2022-10-19T22:58:28.304Z,30
2022-10-19T23:00:59.713Z,28
2022-10-19T23:03:30.850Z,24
2022-10-19T23:06:01.767Z,31
2022-10-19T23:08:32.655Z,28
2022-10-19T23:11:03.400Z,32
2022-10-19T23:13:34.983Z,31
2022-10-19T23:16:06.122Z,30
2022-10-19T23:18:37.009Z,29
2022-10-19T23:21:08.204Z,25
2022-10-19T23:23:39.914Z,36
2022-10-19T23:26:13.442Z,28
2022-10-19T23:28:45.328Z,27
2022-10-19T23:31:17.539Z,28
2022-10-19T23:33:48.422Z,41
2022-10-19T23:36:20.081Z,41
2022-10-19T23:38:51.263Z,28
2022-10-19T23:41:22.980Z,36
2022-10-19T23:43:53.792Z,27
2022-10-19T23:46:24.817Z,28
2022-10-19T23:48:56.309Z,33
2022-10-19T23:51:29.767Z,30
2022-10-19T23:54:01.178Z,35
2022-10-19T23:56:32.071Z,31
2022-10-19T23:59:02.275Z,34
